createdAt,value
2019-02-02T00:02:08.635Z,90.00
2019-02-02T00:04:37.488Z,89.27
2019-02-02T00:07:06.322Z,89.80
2019-02-02T00:09:35.087Z,89.71
2019-02-02T00:12:03.910Z,89.73
2019-02-02T00:14:32.752Z,89.18
2019-02-02T00:17:01.536Z,89.14
2019-02-02T00:19:30.320Z,89.58
2019-02-02T00:21:59.167Z,89.76
2019-02-02T00:24:27.972Z,89.09
2019-02-02T00:26:56.765Z,89.71
2019-02-02T00:29:25.553Z,89.65
2019-02-02T00:31:54.341Z,89.02
2019-02-02T00:34:23.132Z,89.59
2019-02-02T00:36:52.009Z,89.10
2019-02-02T00:39:20.811Z,89.47
2019-02-02T00:41:49.644Z,89.63
2019-02-02T00:44:18.517Z,89.68
2019-02-02T00:46:47.378Z,89.14
2019-02-02T00:49:16.215Z,89.29
2019-02-02T00:51:45.016Z,89.73
2019-02-02T00:54:13.877Z,89.17
2019-02-02T00:56:42.844Z,89.26
2019-02-02T00:59:11.671Z,89.24
2019-02-02T01:01:40.524Z,89.33
2019-02-02T01:04:09.333Z,89.46
2019-02-02T01:06:38.118Z,89.69
2019-02-02T01:09:13.167Z,89.18
2019-02-02T01:11:42.008Z,89.64
2019-02-02T01:14:10.808Z,89.75
2019-02-02T01:16:39.648Z,89.10
2019-02-02T01:19:08.566Z,89.49
2019-02-02T01:21:37.400Z,89.05
2019-02-02T01:24:06.190Z,90.04
2019-02-02T01:26:35.039Z,89.91
2019-02-02T01:29:03.867Z,89.49
2019-02-02T01:31:32.643Z,90.04
2019-02-02T01:34:01.460Z,89.73
2019-02-02T01:36:30.274Z,90.36
2019-02-02T01:38:59.053Z,89.66
2019-02-02T01:41:27.838Z,90.33
2019-02-02T01:43:56.626Z,89.94
2019-02-02T01:46:25.442Z,90.73
2019-02-02T01:48:54.210Z,90.93
2019-02-02T01:51:23.053Z,90.02
2019-02-02T01:53:51.876Z,90.05
2019-02-02T01:56:20.647Z,90.07
2019-02-02T01:58:49.476Z,90.25
2019-02-02T02:01:18.247Z,90.55
2019-02-02T02:03:47.073Z,90.78
2019-02-02T02:06:15.910Z,90.31
2019-02-02T02:08:44.800Z,90.32
2019-02-02T02:11:13.703Z,90.29
2019-02-02T02:13:42.567Z,90.42
2019-02-02T02:16:11.358Z,90.52
2019-02-02T02:18:40.233Z,90.05
2019-02-02T02:21:09.009Z,90.52
2019-02-02T02:23:37.836Z,90.02
2019-02-02T02:26:06.722Z,89.84
2019-02-02T02:28:35.551Z,89.73
2019-02-02T02:31:04.335Z,89.92
2019-02-02T02:33:33.205Z,89.57
2019-02-02T02:36:02.049Z,90.31
2019-02-02T02:38:30.904Z,89.84
2019-02-02T02:40:59.766Z,89.78
2019-02-02T02:43:28.594Z,89.65
2019-02-02T02:45:57.381Z,90.05
2019-02-02T02:48:26.190Z,89.39
2019-02-02T02:50:55.094Z,89.76
2019-02-02T02:53:23.907Z,89.21
2019-02-02T02:55:52.655Z,89.39
2019-02-02T02:58:21.432Z,89.79
2019-02-02T03:00:50.223Z,89.86
2019-02-02T03:03:19.113Z,89.71
2019-02-02T03:05:47.982Z,90.25
2019-02-02T03:08:16.844Z,89.75
2019-02-02T03:10:45.712Z,90.18
2019-02-02T03:13:14.476Z,89.83
2019-02-02T03:15:43.383Z,90.22
2019-02-02T03:18:12.288Z,89.83
2019-02-02T03:20:41.120Z,89.68
2019-02-02T03:23:09.954Z,90.35
2019-02-02T03:25:38.778Z,89.94
2019-02-02T03:28:07.634Z,89.98
2019-02-02T03:30:38.119Z,89.81
2019-02-02T03:33:07.066Z,89.75
2019-02-02T03:35:36.045Z,89.98
2019-02-02T03:38:04.978Z,89.53
2019-02-02T03:40:33.863Z,89.39
2019-02-02T03:43:02.685Z,89.56
2019-02-02T03:45:31.469Z,90.23
2019-02-02T03:48:00.288Z,89.93
2019-02-02T03:50:29.210Z,90.38
2019-02-02T03:52:57.981Z,89.68
2019-02-02T03:55:26.753Z,89.85
2019-02-02T03:57:55.545Z,90.13
2019-02-02T04:00:24.357Z,89.83
2019-02-02T04:02:53.253Z,89.95
2019-02-02T04:05:24.430Z,90.10
2019-02-02T04:07:53.219Z,89.99
2019-02-02T04:10:21.982Z,90.21
2019-02-02T04:12:50.815Z,90.29
2019-02-02T04:15:19.624Z,89.78
2019-02-02T04:17:48.431Z,90.21
2019-02-02T04:20:18.980Z,90.42
2019-02-02T04:22:47.855Z,90.65
2019-02-02T04:25:17.465Z,90.14
2019-02-02T04:27:46.280Z,89.83
2019-02-02T04:30:19.311Z,90.52
2019-02-02T04:32:48.152Z,90.25
2019-02-02T04:35:16.991Z,89.77
2019-02-02T04:37:45.834Z,90.37
2019-02-02T04:40:14.654Z,89.91
2019-02-02T04:42:43.473Z,89.60
2019-02-02T04:45:12.811Z,89.95
2019-02-02T04:47:41.641Z,90.84
2019-02-02T04:50:12.617Z,90.12
2019-02-02T04:52:41.393Z,90.33
2019-02-02T04:55:10.686Z,90.09
2019-02-02T04:57:39.519Z,89.93
2019-02-02T05:00:11.551Z,89.99
2019-02-02T05:02:40.395Z,90.52
2019-02-02T05:05:11.104Z,90.29
2019-02-02T05:07:39.869Z,90.17
2019-02-02T05:10:10.387Z,90.28
2019-02-02T05:12:39.213Z,90.24
2019-02-02T05:15:08.021Z,89.62
2019-02-02T05:17:36.855Z,90.32
2019-02-02T05:20:06.080Z,89.31
2019-02-02T05:22:34.971Z,89.77
2019-02-02T05:25:03.734Z,89.92
2019-02-02T05:27:32.515Z,90.02
2019-02-02T05:30:01.391Z,89.57
2019-02-02T05:32:30.242Z,90.18
2019-02-02T05:34:59.031Z,89.44
2019-02-02T05:37:27.947Z,89.90
2019-02-02T05:39:56.741Z,90.57
2019-02-02T05:42:25.624Z,90.36
2019-02-02T05:44:54.487Z,89.86
2019-02-02T05:47:23.325Z,90.49
2019-02-02T05:49:52.151Z,90.20
2019-02-02T05:52:20.976Z,90.86
2019-02-02T05:54:49.820Z,90.33
2019-02-02T05:57:18.607Z,90.85
2019-02-02T05:59:52.823Z,90.51
2019-02-02T06:02:16.228Z,90.72
2019-02-02T06:04:45.000Z,90.30
2019-02-02T06:07:13.858Z,90.67
2019-02-02T06:09:42.663Z,91.04
2019-02-02T06:12:11.435Z,90.66
2019-02-02T06:14:40.295Z,90.13
2019-02-02T06:17:09.211Z,90.50
2019-02-02T06:19:38.088Z,90.54
2019-02-02T06:22:06.967Z,90.36
2019-02-02T06:24:35.775Z,90.44
2019-02-02T06:27:04.652Z,90.01
2019-02-02T06:29:33.426Z,90.64
2019-02-02T06:32:11.406Z,90.42
2019-02-02T06:34:31.039Z,90.65
2019-02-02T06:36:59.812Z,90.06
2019-02-02T06:39:28.670Z,89.95
2019-02-02T06:41:57.559Z,90.50
2019-02-02T06:44:26.345Z,90.65
2019-02-02T06:46:55.191Z,90.29
2019-02-02T06:49:24.018Z,90.74
2019-02-02T06:51:52.830Z,90.71
2019-02-02T06:54:21.666Z,90.52
2019-02-02T06:56:50.470Z,89.99
2019-02-02T06:59:19.260Z,90.99
2019-02-02T07:01:48.054Z,91.03
2019-02-02T07:04:17.039Z,91.35
2019-02-02T07:06:45.847Z,91.10
2019-02-02T07:09:14.629Z,90.96
2019-02-02T07:11:43.561Z,90.90
2019-02-02T07:14:12.342Z,90.99
2019-02-02T07:16:41.226Z,90.85
2019-02-02T07:19:10.011Z,90.89
2019-02-02T07:21:38.803Z,90.87
2019-02-02T07:24:12.053Z,90.84
2019-02-02T07:26:40.798Z,91.30
2019-02-02T07:29:09.722Z,90.96
2019-02-02T07:31:38.639Z,90.43
2019-02-02T07:34:07.443Z,90.49
2019-02-02T07:36:36.229Z,91.30
2019-02-02T07:39:06.797Z,90.71
2019-02-02T07:41:35.568Z,90.68
2019-02-02T07:44:04.701Z,90.93
2019-02-02T07:46:33.623Z,91.33
2019-02-02T07:49:02.423Z,90.68
2019-02-02T07:51:31.273Z,91.18
2019-02-02T07:54:00.126Z,91.32
2019-02-02T07:56:28.974Z,91.03
2019-02-02T07:59:00.080Z,91.10
2019-02-02T08:01:29.907Z,90.63
2019-02-02T08:03:59.108Z,90.98
2019-02-02T08:06:27.897Z,90.55
2019-02-02T08:08:56.782Z,90.48
2019-02-02T08:11:25.610Z,90.49
2019-02-02T08:13:54.464Z,90.90
2019-02-02T08:16:23.374Z,90.65
2019-02-02T08:18:52.143Z,91.11
2019-02-02T08:21:22.473Z,90.89
2019-02-02T08:23:51.329Z,91.34
2019-02-02T08:26:20.126Z,91.00
2019-02-02T08:28:49.024Z,91.15
2019-02-02T08:31:17.863Z,90.66
2019-02-02T08:33:46.704Z,91.04
2019-02-02T08:36:15.483Z,90.76
2019-02-02T08:38:44.347Z,90.94
2019-02-02T08:41:13.223Z,90.61
2019-02-02T08:43:41.995Z,90.93
2019-02-02T08:46:10.805Z,90.78
2019-02-02T08:48:39.592Z,91.31
2019-02-02T08:51:08.371Z,91.27
2019-02-02T08:53:37.354Z,91.36
2019-02-02T08:56:06.264Z,91.19
2019-02-02T08:58:35.099Z,91.51
2019-02-02T09:01:04.519Z,91.58
2019-02-02T09:03:32.721Z,91.54
2019-02-02T09:06:01.504Z,91.58
2019-02-02T09:08:30.354Z,91.51
2019-02-02T09:10:59.162Z,91.17
2019-02-02T09:13:27.983Z,91.14
2019-02-02T09:15:56.793Z,91.37
2019-02-02T09:18:25.756Z,91.14
2019-02-02T09:20:54.652Z,91.90
2019-02-02T09:23:23.428Z,91.23
2019-02-02T09:25:59.388Z,91.33
2019-02-02T09:28:28.255Z,90.94
2019-02-02T09:30:57.095Z,91.57
2019-02-02T09:33:25.901Z,91.97
2019-02-02T09:35:54.725Z,90.82
2019-02-02T09:38:23.550Z,91.69
2019-02-02T09:40:52.331Z,91.13
2019-02-02T09:43:21.134Z,91.54
2019-02-02T09:45:49.955Z,91.71
2019-02-02T09:48:19.290Z,91.47
2019-02-02T09:50:48.074Z,91.93
2019-02-02T09:53:16.895Z,91.90
2019-02-02T09:55:45.755Z,91.71
2019-02-02T09:58:14.512Z,91.75
2019-02-02T10:00:43.469Z,91.94
2019-02-02T10:03:12.274Z,91.56
2019-02-02T10:05:41.204Z,91.22
2019-02-02T10:08:09.975Z,92.24
2019-02-02T10:10:38.897Z,91.91
2019-02-02T10:13:08.073Z,92.20
2019-02-02T10:15:36.971Z,91.63
2019-02-02T10:18:06.168Z,91.63
2019-02-02T10:20:34.952Z,92.01
2019-02-02T10:23:03.725Z,91.64
2019-02-02T10:25:32.525Z,91.70
2019-02-02T10:28:01.339Z,91.58
2019-02-02T10:30:34.056Z,91.85
2019-02-02T10:33:02.831Z,91.78
2019-02-02T10:35:31.711Z,91.55
2019-02-02T10:38:00.500Z,92.28
2019-02-02T10:40:30.016Z,91.65
2019-02-02T10:42:58.142Z,91.59
2019-02-02T10:45:26.983Z,91.67
2019-02-02T10:47:55.787Z,91.83
2019-02-02T10:50:24.627Z,92.21
2019-02-02T10:52:53.431Z,91.43
2019-02-02T10:55:22.262Z,92.11
2019-02-02T10:57:51.123Z,91.40
2019-02-02T11:00:22.858Z,91.61
2019-02-02T11:02:51.675Z,92.13
2019-02-02T11:05:20.466Z,92.23
2019-02-02T11:07:49.265Z,91.69
2019-02-02T11:10:20.394Z,92.07
2019-02-02T11:12:49.145Z,91.71
2019-02-02T11:15:18.374Z,91.01
2019-02-02T11:17:47.126Z,91.29
2019-02-02T11:20:18.188Z,90.95
2019-02-02T11:22:46.917Z,91.51
2019-02-02T11:25:15.870Z,90.96
2019-02-02T11:27:44.573Z,91.69
2019-02-02T11:30:14.473Z,91.52
2019-02-02T11:32:43.813Z,91.16
2019-02-02T11:35:13.575Z,90.65
2019-02-02T11:37:42.382Z,90.85
2019-02-02T11:40:15.835Z,90.39
2019-02-02T11:42:44.617Z,90.39
2019-02-02T11:45:13.477Z,90.16
2019-02-02T11:47:42.465Z,90.22
2019-02-02T11:50:12.796Z,90.55
2019-02-02T11:52:42.081Z,89.79
2019-02-02T11:55:11.822Z,89.78
2019-02-02T11:57:40.658Z,90.36
2019-02-02T12:00:17.726Z,89.63
2019-02-02T12:02:49.437Z,90.39
2019-02-02T12:05:15.348Z,90.11
2019-02-02T12:07:44.126Z,89.95
2019-02-02T12:10:14.730Z,89.73
2019-02-02T12:12:43.611Z,90.23
2019-02-02T12:15:13.860Z,90.09
2019-02-02T12:17:42.696Z,90.18
2019-02-02T12:20:13.102Z,90.02
2019-02-02T12:22:41.895Z,89.88
2019-02-02T12:25:10.780Z,89.98
2019-02-02T12:27:39.592Z,89.75
2019-02-02T12:30:11.137Z,89.99
2019-02-02T12:32:39.917Z,89.56
2019-02-02T12:35:10.903Z,89.36
2019-02-02T12:37:39.690Z,90.06
2019-02-02T12:40:09.606Z,89.45
2019-02-02T12:42:38.544Z,89.49
2019-02-02T12:45:10.769Z,89.61
2019-02-02T12:47:39.599Z,89.23
2019-02-02T12:50:09.151Z,89.67
2019-02-02T12:52:38.606Z,89.63
2019-02-02T12:55:07.467Z,89.98
2019-02-02T12:57:36.244Z,89.93
2019-02-02T13:00:07.407Z,89.50
2019-02-02T13:02:38.252Z,89.28
2019-02-02T13:05:05.454Z,90.03
2019-02-02T13:07:34.304Z,88.92
2019-02-02T13:10:03.143Z,89.68
2019-02-02T13:12:31.977Z,90.05
2019-02-02T13:15:00.841Z,90.08
2019-02-02T13:17:29.705Z,90.37
2019-02-02T13:19:58.547Z,90.23
2019-02-02T13:22:27.445Z,89.98
2019-02-02T13:24:56.244Z,89.97
2019-02-02T13:27:25.054Z,90.20
2019-02-02T13:29:53.896Z,90.33
2019-02-02T13:32:22.708Z,90.41
2019-02-02T13:34:51.491Z,89.71
2019-02-02T13:37:20.400Z,90.23
2019-02-02T13:39:49.213Z,89.88
2019-02-02T13:42:18.005Z,90.16
2019-02-02T13:44:46.818Z,89.53
2019-02-02T13:47:15.648Z,89.98
2019-02-02T13:49:44.727Z,89.95
2019-02-02T13:52:13.577Z,90.11
2019-02-02T13:54:42.409Z,89.82
2019-02-02T13:57:11.262Z,89.76
2019-02-02T13:59:40.164Z,90.06
2019-02-02T14:02:09.169Z,89.92
2019-02-02T14:04:38.057Z,89.87
2019-02-02T14:07:17.441Z,90.53
2019-02-02T14:09:35.782Z,90.01
2019-02-02T14:12:04.622Z,90.40
2019-02-02T14:14:33.752Z,90.43
2019-02-02T14:17:02.559Z,90.18
2019-02-02T14:19:31.463Z,90.21
2019-02-02T14:22:00.157Z,90.54
2019-02-02T14:24:29.032Z,90.97
2019-02-02T14:26:57.843Z,90.52
2019-02-02T14:29:26.728Z,90.16
2019-02-02T14:31:55.676Z,90.06
2019-02-02T14:34:24.528Z,90.46
2019-02-02T14:36:53.318Z,90.30
2019-02-02T14:39:22.247Z,90.33
2019-02-02T14:41:51.199Z,90.04
2019-02-02T14:44:19.956Z,90.39
2019-02-02T14:46:48.768Z,90.66
2019-02-02T14:49:17.600Z,89.60
2019-02-02T14:51:46.426Z,90.38
2019-02-02T14:54:15.251Z,90.11
2019-02-02T14:56:47.985Z,89.72
2019-02-02T14:59:12.815Z,89.59
2019-02-02T15:01:41.598Z,89.93
2019-02-02T15:04:10.440Z,90.05
2019-02-02T15:06:39.322Z,90.32
2019-02-02T15:09:08.503Z,90.05
2019-02-02T15:11:37.363Z,89.71
2019-02-02T15:14:06.211Z,89.75
2019-02-02T15:16:34.986Z,90.08
2019-02-02T15:19:03.853Z,89.91
2019-02-02T15:21:32.750Z,89.30
2019-02-02T15:24:01.562Z,89.45
2019-02-02T15:26:30.364Z,89.68
2019-02-02T15:28:59.165Z,90.38
2019-02-02T15:31:27.956Z,90.74
2019-02-02T15:33:56.735Z,89.70
2019-02-02T15:36:25.678Z,90.00
2019-02-02T15:38:54.451Z,89.84
2019-02-02T15:41:23.328Z,90.23
2019-02-02T15:43:52.135Z,90.46
2019-02-02T15:46:20.983Z,90.39
2019-02-02T15:48:49.902Z,91.06
2019-02-02T15:51:18.714Z,90.63
2019-02-02T15:53:48.841Z,90.26
2019-02-02T15:56:16.334Z,90.94
2019-02-02T15:58:45.176Z,91.01
2019-02-02T16:01:14.098Z,91.08
2019-02-02T16:06:18.098Z,90.89
2019-02-02T16:08:46.980Z,91.11
2019-02-02T16:11:15.760Z,91.04
2019-02-02T16:13:44.599Z,90.61
2019-02-02T16:16:14.277Z,91.33
2019-02-02T16:18:43.154Z,91.54
2019-02-02T16:21:12.015Z,90.92
2019-02-02T16:23:40.798Z,91.42
2019-02-02T16:26:09.666Z,90.94
2019-02-02T16:28:38.583Z,91.12
2019-02-02T16:31:07.344Z,92.23
2019-02-02T16:33:36.224Z,91.93
2019-02-02T16:36:05.159Z,91.32
2019-02-02T16:38:33.942Z,92.10
2019-02-02T16:41:02.831Z,91.25
2019-02-02T16:43:31.741Z,91.85
2019-02-02T16:46:01.108Z,91.95
2019-02-02T16:48:29.886Z,92.00
2019-02-02T16:50:58.709Z,92.02
2019-02-02T16:53:27.565Z,91.67
2019-02-02T16:55:56.354Z,92.51
2019-02-02T16:58:25.207Z,92.36
2019-02-02T17:00:53.999Z,92.49
2019-02-02T17:03:22.824Z,93.09
2019-02-02T17:05:51.615Z,92.87
2019-02-02T17:08:20.492Z,93.27
2019-02-02T17:10:49.300Z,93.04
2019-02-02T17:13:18.126Z,93.41
2019-02-02T17:15:46.953Z,92.35
2019-02-02T17:18:24.658Z,93.12
2019-02-02T17:20:53.549Z,92.55
2019-02-02T17:23:22.460Z,92.53
2019-02-02T17:25:51.295Z,91.95
2019-02-02T17:28:20.214Z,92.01
2019-02-02T17:30:49.082Z,91.70
2019-02-02T17:33:17.879Z,92.28
2019-02-02T17:35:46.685Z,92.37
2019-02-02T17:38:15.483Z,92.74
2019-02-02T17:40:44.277Z,92.00
2019-02-02T17:43:13.133Z,91.66
2019-02-02T17:45:41.934Z,92.23
2019-02-02T17:48:12.987Z,91.96
2019-02-02T17:50:39.567Z,92.55
2019-02-02T17:53:08.372Z,92.28
2019-02-02T17:55:37.152Z,92.93
2019-02-02T17:58:07.224Z,92.03
2019-02-02T18:00:41.600Z,92.25
2019-02-02T18:03:10.461Z,92.46
2019-02-02T18:05:39.253Z,91.96
2019-02-02T18:08:08.125Z,92.14
2019-02-02T18:10:36.987Z,92.95
2019-02-02T18:13:05.796Z,92.95
2019-02-02T18:15:34.615Z,92.73
2019-02-02T18:18:03.402Z,92.40
2019-02-02T18:20:32.298Z,92.67
2019-02-02T18:23:01.130Z,92.25
2019-02-02T18:25:29.942Z,92.54
2019-02-02T18:27:58.793Z,92.39
2019-02-02T18:30:27.590Z,92.68
2019-02-02T18:32:56.444Z,92.21
2019-02-02T18:35:25.259Z,92.53
2019-02-02T18:37:54.135Z,92.60
2019-02-02T18:40:23.064Z,92.66
2019-02-02T18:42:51.851Z,92.31
2019-02-02T18:45:22.673Z,92.72
2019-02-02T18:47:51.507Z,92.21
2019-02-02T18:50:20.303Z,92.22
2019-02-02T18:52:49.240Z,92.38
2019-02-02T18:55:20.914Z,91.83
2019-02-02T18:57:49.812Z,91.66
2019-02-02T19:00:19.470Z,92.46
2019-02-02T19:02:48.307Z,91.92
2019-02-02T19:05:17.285Z,92.09
2019-02-02T19:07:45.959Z,91.63
2019-02-02T19:10:17.327Z,91.55
2019-02-02T19:12:46.586Z,91.86
2019-02-02T19:15:15.389Z,91.42
2019-02-02T19:17:44.181Z,91.89
2019-02-02T19:20:15.451Z,91.96
2019-02-02T19:22:44.353Z,91.67
2019-02-02T19:25:13.142Z,91.55
2019-02-02T19:27:41.951Z,91.66
2019-02-02T19:30:14.503Z,91.99
2019-02-02T19:32:43.430Z,91.20
2019-02-02T19:35:16.090Z,91.65
2019-02-02T19:37:41.033Z,92.31
2019-02-02T19:40:10.470Z,91.66
2019-02-02T19:42:39.325Z,91.76
2019-02-02T19:45:09.277Z,92.26
2019-02-02T19:47:38.105Z,92.28
2019-02-02T19:50:08.341Z,91.98
2019-02-02T19:52:40.178Z,92.04
2019-02-02T19:55:14.332Z,92.17
2019-02-02T19:57:35.253Z,92.64
2019-02-02T20:00:05.284Z,92.10
2019-02-02T20:02:34.068Z,92.08
2019-02-02T20:05:02.865Z,92.90
2019-02-02T20:07:31.690Z,92.10
2019-02-02T20:10:00.467Z,93.07
2019-02-02T20:12:29.252Z,93.08
2019-02-02T20:14:58.674Z,92.86
2019-02-02T20:17:27.443Z,93.03
2019-02-02T20:19:56.262Z,92.38
2019-02-02T20:22:25.163Z,93.15
2019-02-02T20:24:53.966Z,93.09
2019-02-02T20:27:22.835Z,93.62
2019-02-02T20:29:51.638Z,92.89
2019-02-02T20:32:20.545Z,93.06
2019-02-02T20:34:49.314Z,92.38
2019-02-02T20:37:18.501Z,92.67
2019-02-02T20:39:47.363Z,92.27
2019-02-02T20:42:16.145Z,92.47
2019-02-02T20:44:44.976Z,92.53
2019-02-02T20:47:13.751Z,92.28
2019-02-02T20:49:42.618Z,93.16
2019-02-02T20:52:11.528Z,93.30
2019-02-02T20:54:40.360Z,92.37
2019-02-02T20:57:09.186Z,92.75
2019-02-02T20:59:38.055Z,92.98
2019-02-02T21:02:06.892Z,92.81
2019-02-02T21:04:35.768Z,92.48
2019-02-02T21:07:04.630Z,92.12
2019-02-02T21:09:33.447Z,91.79
2019-02-02T21:12:02.296Z,91.77
2019-02-02T21:14:31.096Z,92.78
2019-02-02T21:16:59.958Z,92.31
2019-02-02T21:19:28.883Z,92.20
2019-02-02T21:21:57.702Z,92.37
2019-02-02T21:24:27.241Z,91.61
2019-02-02T21:26:55.356Z,92.15
2019-02-02T21:29:24.165Z,92.49
2019-02-02T21:31:52.957Z,92.50
2019-02-02T21:34:22.602Z,92.62
2019-02-02T21:36:51.473Z,92.19
2019-02-02T21:39:20.390Z,91.87
2019-02-02T21:41:49.267Z,91.52
2019-02-02T21:44:18.125Z,91.59
2019-02-02T21:46:46.954Z,91.81
2019-02-02T21:49:15.779Z,91.96
2019-02-02T21:51:44.582Z,91.51
2019-02-02T21:54:13.474Z,92.00
2019-02-02T21:56:42.323Z,92.00
2019-02-02T21:59:11.238Z,92.25
2019-02-02T22:01:40.082Z,92.17
2019-02-02T22:04:09.061Z,91.71
2019-02-02T22:06:38.962Z,92.22
2019-02-02T22:09:08.236Z,92.66
2019-02-02T22:11:37.022Z,92.34
2019-02-02T22:14:05.871Z,91.57
2019-02-02T22:16:34.683Z,92.46
2019-02-02T22:19:03.497Z,91.53
2019-02-02T22:21:32.284Z,91.70
2019-02-02T22:24:01.160Z,91.40
2019-02-02T22:26:29.986Z,92.06
2019-02-02T22:28:58.842Z,91.34
2019-02-02T22:31:27.719Z,92.24
2019-02-02T22:33:56.561Z,91.49
2019-02-02T22:36:27.579Z,91.10
2019-02-02T22:38:54.196Z,91.95
2019-02-02T22:41:22.994Z,91.67
2019-02-02T22:43:51.837Z,91.57
2019-02-02T22:46:20.643Z,90.94
2019-02-02T22:48:49.502Z,91.41
2019-02-02T22:51:18.353Z,91.46
2019-02-02T22:53:47.194Z,91.15
2019-02-02T22:56:15.993Z,90.53
2019-02-02T22:58:44.799Z,91.02
2019-02-02T23:01:23.799Z,91.22
2019-02-02T23:04:05.493Z,91.63
2019-02-02T23:06:45.077Z,90.87
2019-02-02T23:09:25.002Z,90.61
2019-02-02T23:12:06.287Z,91.35
2019-02-02T23:14:45.283Z,90.71
2019-02-02T23:17:14.083Z,90.69
2019-02-02T23:19:42.875Z,90.73
2019-02-02T23:22:11.709Z,91.30
2019-02-02T23:24:40.510Z,90.42
2019-02-02T23:27:09.374Z,90.48
2019-02-02T23:29:38.178Z,91.36
2019-02-02T23:32:07.008Z,91.20
2019-02-02T23:34:35.805Z,91.06
2019-02-02T23:37:04.615Z,90.95
2019-02-02T23:39:33.423Z,91.25
2019-02-02T23:42:02.220Z,91.09
2019-02-02T23:44:31.019Z,91.32
2019-02-02T23:46:59.824Z,91.13
2019-02-02T23:49:28.775Z,90.96
2019-02-02T23:51:57.640Z,91.40
2019-02-02T23:54:26.476Z,90.99
2019-02-02T23:56:55.276Z,90.90
2019-02-02T23:59:24.076Z,90.98
